sensor_id;sensor_type;location;lat;lon;timestamp;pressure;altitude;pressure_sealevel;temperature;humidity
54876;BME280;40764;48.472;8.166;2023-02-19T00:01:47;98854.75;;;11.01;78.25
54876;BME280;40764;48.472;8.166;2023-02-19T00:07:48;98852.56;;;11.03;78.21
54876;BME280;40764;48.472;8.166;2023-02-19T00:13:50;98851.22;;;10.95;78.36
54876;BME280;40764;48.472;8.166;2023-02-19T00:19:51;98852.34;;;10.89;78.29
54876;BME280;40764;48.472;8.166;2023-02-19T00:25:51;98852.66;;;10.82;78.85
54876;BME280;40764;48.472;8.166;2023-02-19T00:31:51;98842.78;;;10.86;78.53
54876;BME280;40764;48.472;8.166;2023-02-19T00:37:52;98854.31;;;10.78;78.66
54876;BME280;40764;48.472;8.166;2023-02-19T00:43:57;98834.88;;;10.85;78.37
54876;BME280;40764;48.472;8.166;2023-02-19T00:49:58;98830.00;;;10.77;78.56
54876;BME280;40764;48.472;8.166;2023-02-19T00:55:58;98851.34;;;10.75;78.73
54876;BME280;40764;48.472;8.166;2023-02-19T01:01:58;98836.53;;;10.81;78.54
54876;BME280;40764;48.472;8.166;2023-02-19T01:07:59;98833.25;;;10.79;78.70
54876;BME280;40764;48.472;8.166;2023-02-19T01:14:00;98826.41;;;10.81;78.58
54876;BME280;40764;48.472;8.166;2023-02-19T01:20:00;98822.59;;;10.77;78.96
54876;BME280;40764;48.472;8.166;2023-02-19T01:26:10;98836.28;;;10.77;80.02
54876;BME280;40764;48.472;8.166;2023-02-19T01:32:11;98832.69;;;10.82;79.96
54876;BME280;40764;48.472;8.166;2023-02-19T01:38:11;98833.53;;;10.77;80.07
54876;BME280;40764;48.472;8.166;2023-02-19T01:50:16;98836.06;;;10.64;82.09
54876;BME280;40764;48.472;8.166;2023-02-19T01:56:17;98841.28;;;10.55;82.61
54876;BME280;40764;48.472;8.166;2023-02-19T02:02:19;98833.13;;;10.40;82.74
54876;BME280;40764;48.472;8.166;2023-02-19T02:08:19;98844.38;;;10.33;82.43
54876;BME280;40764;48.472;8.166;2023-02-19T02:14:44;98864.06;;;10.25;82.57
54876;BME280;40764;48.472;8.166;2023-02-19T02:39:30;98843.06;;;9.80;88.20
54876;BME280;40764;48.472;8.166;2023-02-19T02:45:32;98815.53;;;9.61;89.48
54876;BME280;40764;48.472;8.166;2023-02-19T02:51:36;98800.50;;;9.53;91.80
54876;BME280;40764;48.472;8.166;2023-02-19T02:57:37;98801.63;;;9.57;91.96
54876;BME280;40764;48.472;8.166;2023-02-19T03:03:38;98790.16;;;9.45;93.62
54876;BME280;40764;48.472;8.166;2023-02-19T03:09:41;98814.16;;;9.38;95.18
54876;BME280;40764;48.472;8.166;2023-02-19T03:15:45;98812.81;;;9.25;95.69
54876;BME280;40764;48.472;8.166;2023-02-19T03:22:11;98813.06;;;9.24;95.40
54876;BME280;40764;48.472;8.166;2023-02-19T03:28:14;98813.34;;;9.27;95.28
54876;BME280;40764;48.472;8.166;2023-02-19T03:34:33;98821.00;;;9.30;95.84
54876;BME280;40764;48.472;8.166;2023-02-19T03:40:43;98819.88;;;9.16;96.64
54876;BME280;40764;48.472;8.166;2023-02-19T03:46:53;98820.41;;;9.08;97.70
54876;BME280;40764;48.472;8.166;2023-02-19T03:59:09;98820.41;;;9.13;98.73
54876;BME280;40764;48.472;8.166;2023-02-19T04:05:21;98830.50;;;8.97;100.00
54876;BME280;40764;48.472;8.166;2023-02-19T04:11:25;98823.38;;;8.91;100.00
54876;BME280;40764;48.472;8.166;2023-02-19T04:17:33;98822.56;;;8.91;100.00
54876;BME280;40764;48.472;8.166;2023-02-19T04:23:41;98834.81;;;8.88;100.00
54876;BME280;40764;48.472;8.166;2023-02-19T04:29:42;98841.59;;;8.76;100.00
54876;BME280;40764;48.472;8.166;2023-02-19T04:35:42;98850.88;;;8.80;100.00
54876;BME280;40764;48.472;8.166;2023-02-19T04:41:43;98860.16;;;8.89;100.00
54876;BME280;40764;48.472;8.166;2023-02-19T04:47:43;98865.06;;;8.82;100.00
54876;BME280;40764;48.472;8.166;2023-02-19T04:53:43;98868.63;;;8.87;100.00
54876;BME280;40764;48.472;8.166;2023-02-19T04:59:45;98879.00;;;8.90;100.00
54876;BME280;40764;48.472;8.166;2023-02-19T05:05:45;98895.34;;;8.90;100.00
54876;BME280;40764;48.472;8.166;2023-02-19T05:11:46;98900.25;;;8.88;100.00
54876;BME280;40764;48.472;8.166;2023-02-19T05:17:46;98902.97;;;8.88;100.00
54876;BME280;40764;48.472;8.166;2023-02-19T05:23:46;98914.69;;;8.84;100.00
54876;BME280;40764;48.472;8.166;2023-02-19T05:29:46;98916.59;;;8.88;100.00
54876;BME280;40764;48.472;8.166;2023-02-19T05:35:52;98923.13;;;8.82;100.00
54876;BME280;40764;48.472;8.166;2023-02-19T05:41:53;98932.16;;;8.88;100.00
54876;BME280;40764;48.472;8.166;2023-02-19T05:47:53;98928.00;;;8.75;100.00
54876;BME280;40764;48.472;8.166;2023-02-19T05:53:54;98941.13;;;8.83;100.00
54876;BME280;40764;48.472;8.166;2023-02-19T05:59:55;98941.41;;;8.82;100.00
54876;BME280;40764;48.472;8.166;2023-02-19T06:05:55;98938.34;;;8.68;100.00
54876;BME280;40764;48.472;8.166;2023-02-19T06:11:56;98957.97;;;8.70;100.00
54876;BME280;40764;48.472;8.166;2023-02-19T06:17:56;98945.72;;;8.67;100.00
54876;BME280;40764;48.472;8.166;2023-02-19T06:23:56;98954.63;;;8.58;100.00
54876;BME280;40764;48.472;8.166;2023-02-19T06:29:57;98948.72;;;8.71;100.00
54876;BME280;40764;48.472;8.166;2023-02-19T06:35:59;98964.00;;;8.72;99.70
54876;BME280;40764;48.472;8.166;2023-02-19T06:41:59;98978.16;;;8.69;99.33
54876;BME280;40764;48.472;8.166;2023-02-19T06:48:00;98983.66;;;8.79;98.51
54876;BME280;40764;48.472;8.166;2023-02-19T06:54:00;98978.47;;;8.78;97.61
54876;BME280;40764;48.472;8.166;2023-02-19T07:00:03;98994.28;;;8.81;97.95
54876;BME280;40764;48.472;8.166;2023-02-19T07:06:04;99001.94;;;8.84;97.98
54876;BME280;40764;48.472;8.166;2023-02-19T07:12:05;98994.31;;;8.86;96.75
54876;BME280;40764;48.472;8.166;2023-02-19T07:18:05;98987.41;;;8.68;95.67
54876;BME280;40764;48.472;8.166;2023-02-19T07:24:09;98998.38;;;8.83;95.50
54876;BME280;40764;48.472;8.166;2023-02-19T07:30:10;99024.03;;;8.87;94.75
54876;BME280;40764;48.472;8.166;2023-02-19T07:36:10;99025.13;;;8.91;95.67
54876;BME280;40764;48.472;8.166;2023-02-19T07:42:10;99032.19;;;8.82;94.74
54876;BME280;40764;48.472;8.166;2023-02-19T07:48:11;99022.91;;;8.83;93.95
54876;BME280;40764;48.472;8.166;2023-02-19T07:54:11;99033.59;;;8.90;93.53
54876;BME280;40764;48.472;8.166;2023-02-19T08:00:12;99030.94;;;9.00;93.33
54876;BME280;40764;48.472;8.166;2023-02-19T08:06:13;99039.31;;;8.93;93.42
54876;BME280;40764;48.472;8.166;2023-02-19T08:12:13;99043.53;;;9.11;93.28
54876;BME280;40764;48.472;8.166;2023-02-19T08:18:32;99047.63;;;9.19;93.37
54876;BME280;40764;48.472;8.166;2023-02-19T08:24:32;99063.44;;;9.12;93.29
54876;BME280;40764;48.472;8.166;2023-02-19T08:30:33;99060.72;;;9.17;92.72
54876;BME280;40764;48.472;8.166;2023-02-19T08:36:34;99061.31;;;9.24;92.02
54876;BME280;40764;48.472;8.166;2023-02-19T08:42:34;99066.53;;;9.25;91.59
54876;BME280;40764;48.472;8.166;2023-02-19T08:48:35;99067.66;;;9.40;91.68
54876;BME280;40764;48.472;8.166;2023-02-19T08:54:35;99070.63;;;9.33;92.74
54876;BME280;40764;48.472;8.166;2023-02-19T09:00:36;99083.19;;;9.34;92.41
54876;BME280;40764;48.472;8.166;2023-02-19T09:06:36;99088.66;;;9.34;90.96
54876;BME280;40764;48.472;8.166;2023-02-19T09:12:36;99097.97;;;9.43;90.48
54876;BME280;40764;48.472;8.166;2023-02-19T09:18:37;99099.59;;;9.39;90.96
54876;BME280;40764;48.472;8.166;2023-02-19T09:24:37;99116.47;;;9.31;90.96
54876;BME280;40764;48.472;8.166;2023-02-19T09:30:38;99104.25;;;9.49;91.25
54876;BME280;40764;48.472;8.166;2023-02-19T09:36:38;99101.59;;;9.59;89.78
54876;BME280;40764;48.472;8.166;2023-02-19T09:42:41;99108.69;;;9.60;90.07
54876;BME280;40764;48.472;8.166;2023-02-19T09:48:42;99115.81;;;9.71;89.84
54876;BME280;40764;48.472;8.166;2023-02-19T09:54:43;99141.72;;;9.58;90.56
54876;BME280;40764;48.472;8.166;2023-02-19T10:00:47;99140.69;;;9.75;90.11
54876;BME280;40764;48.472;8.166;2023-02-19T10:06:48;99148.66;;;9.86;88.44
54876;BME280;40764;48.472;8.166;2023-02-19T10:12:51;99142.66;;;9.89;88.46
54876;BME280;40764;48.472;8.166;2023-02-19T10:18:53;99151.72;;;10.10;86.91
54876;BME280;40764;48.472;8.166;2023-02-19T10:24:54;99147.13;;;10.16;87.41
54876;BME280;40764;48.472;8.166;2023-02-19T10:30:56;99154.75;;;10.19;86.40
54876;BME280;40764;48.472;8.166;2023-02-19T10:36:57;99167.56;;;10.08;85.29
54876;BME280;40764;48.472;8.166;2023-02-19T10:43:02;99181.75;;;10.05;85.30
54876;BME280;40764;48.472;8.166;2023-02-19T10:49:21;99185.75;;;9.82;86.99
54876;BME280;40764;48.472;8.166;2023-02-19T10:55:29;99184.16;;;9.86;87.83
54876;BME280;40764;48.472;8.166;2023-02-19T11:01:30;99176.81;;;9.97;87.70
54876;BME280;40764;48.472;8.166;2023-02-19T11:07:30;99166.47;;;10.09;86.96
54876;BME280;40764;48.472;8.166;2023-02-19T11:13:32;99172.19;;;10.03;87.66
54876;BME280;40764;48.472;8.166;2023-02-19T11:19:39;99174.47;;;10.26;85.30
54876;BME280;40764;48.472;8.166;2023-02-19T11:25:49;99183.19;;;10.18;85.83
54876;BME280;40764;48.472;8.166;2023-02-19T11:31:50;99173.41;;;10.37;85.13
54876;BME280;40764;48.472;8.166;2023-02-19T11:37:56;99173.94;;;10.39;83.26
54876;BME280;40764;48.472;8.166;2023-02-19T11:44:22;99177.53;;;10.50;81.80
54876;BME280;40764;48.472;8.166;2023-02-19T11:50:45;99164.97;;;10.44;82.19
54876;BME280;40764;48.472;8.166;2023-02-19T11:57:00;99167.16;;;10.42;82.32
54876;BME280;40764;48.472;8.166;2023-02-19T12:46:19;99155.16;;;10.73;78.71
54876;BME280;40764;48.472;8.166;2023-02-19T12:52:24;99162.50;;;10.68;77.81
54876;BME280;40764;48.472;8.166;2023-02-19T12:58:27;99158.66;;;11.14;76.95
54876;BME280;40764;48.472;8.166;2023-02-19T13:04:39;99143.63;;;11.17;75.46
54876;BME280;40764;48.472;8.166;2023-02-19T13:10:56;99153.75;;;10.96;76.31
54876;BME280;40764;48.472;8.166;2023-02-19T13:17:12;99126.56;;;11.45;74.83
54876;BME280;40764;48.472;8.166;2023-02-19T13:23:35;99135.88;;;11.49;74.24
54876;BME280;40764;48.472;8.166;2023-02-19T13:36:23;99140.06;;;11.11;75.55
54876;BME280;40764;48.472;8.166;2023-02-19T13:42:29;99135.94;;;11.24;75.59
54876;BME280;40764;48.472;8.166;2023-02-19T13:48:36;99127.72;;;11.19;74.01
54876;BME280;40764;48.472;8.166;2023-02-19T13:54:37;99155.94;;;11.09;74.24
54876;BME280;40764;48.472;8.166;2023-02-19T14:00:48;99138.16;;;11.12;73.68
54876;BME280;40764;48.472;8.166;2023-02-19T14:13:07;99123.34;;;11.18;73.21
54876;BME280;40764;48.472;8.166;2023-02-19T14:19:15;99128.25;;;11.26;72.34
54876;BME280;40764;48.472;8.166;2023-02-19T14:25:51;99136.25;;;10.97;72.44
54876;BME280;40764;48.472;8.166;2023-02-19T14:31:53;99141.19;;;10.85;73.67
54876;BME280;40764;48.472;8.166;2023-02-19T14:37:55;99143.09;;;10.64;74.13
54876;BME280;40764;48.472;8.166;2023-02-19T14:43:57;99154.06;;;10.74;74.22
54876;BME280;40764;48.472;8.166;2023-02-19T14:50:12;99143.63;;;10.56;75.14
54876;BME280;40764;48.472;8.166;2023-02-19T14:56:35;99143.63;;;10.66;75.21
54876;BME280;40764;48.472;8.166;2023-02-19T15:02:41;99137.38;;;10.81;74.68
54876;BME280;40764;48.472;8.166;2023-02-19T15:08:54;99144.75;;;10.70;75.28
54876;BME280;40764;48.472;8.166;2023-02-19T15:14:59;99134.34;;;10.57;75.81
54876;BME280;40764;48.472;8.166;2023-02-19T15:21:02;99146.94;;;10.48;76.10
54876;BME280;40764;48.472;8.166;2023-02-19T15:27:04;99158.69;;;10.43;75.99
54876;BME280;40764;48.472;8.166;2023-02-19T15:33:15;99167.97;;;10.42;75.97
54876;BME280;40764;48.472;8.166;2023-02-19T15:39:22;99170.13;;;10.30;75.57
54876;BME280;40764;48.472;8.166;2023-02-19T15:45:41;99175.84;;;10.29;75.92
54876;BME280;40764;48.472;8.166;2023-02-19T15:51:57;99193.81;;;10.14;75.90
54876;BME280;40764;48.472;8.166;2023-02-19T16:04:18;99200.59;;;10.07;76.73
54876;BME280;40764;48.472;8.166;2023-02-19T16:10:23;99214.28;;;10.12;76.02
54876;BME280;40764;48.472;8.166;2023-02-19T16:16:29;99204.16;;;10.02;76.71
54876;BME280;40764;48.472;8.166;2023-02-19T16:22:39;99208.50;;;9.93;76.56
54876;BME280;40764;48.472;8.166;2023-02-19T16:28:41;99227.59;;;9.88;76.65
54876;BME280;40764;48.472;8.166;2023-02-19T16:34:43;99237.13;;;9.85;76.35
54876;BME280;40764;48.472;8.166;2023-02-19T16:47:10;99225.59;;;9.78;76.63
54876;BME280;40764;48.472;8.166;2023-02-19T16:53:18;99217.63;;;9.67;77.60
54876;BME280;40764;48.472;8.166;2023-02-19T16:59:19;99204.53;;;9.63;77.97
54876;BME280;40764;48.472;8.166;2023-02-19T17:05:21;99208.06;;;9.64;78.27
54876;BME280;40764;48.472;8.166;2023-02-19T17:11:22;99213.50;;;9.59;78.07
54876;BME280;40764;48.472;8.166;2023-02-19T17:17:22;99231.81;;;9.63;78.07
54876;BME280;40764;48.472;8.166;2023-02-19T17:23:22;99233.72;;;9.63;79.19
54876;BME280;40764;48.472;8.166;2023-02-19T17:29:23;99235.81;;;9.51;79.55
54876;BME280;40764;48.472;8.166;2023-02-19T17:35:23;99227.63;;;9.51;79.04
54876;BME280;40764;48.472;8.166;2023-02-19T17:41:24;99241.97;;;9.31;81.19
54876;BME280;40764;48.472;8.166;2023-02-19T17:47:24;99247.44;;;9.31;82.28
54876;BME280;40764;48.472;8.166;2023-02-19T17:53:25;99239.81;;;9.33;81.66
54876;BME280;40764;48.472;8.166;2023-02-19T17:59:25;99252.06;;;9.30;81.91
54876;BME280;40764;48.472;8.166;2023-02-19T18:05:25;99253.28;;;9.13;83.32
54876;BME280;40764;48.472;8.166;2023-02-19T18:11:26;99258.00;;;9.22;82.62
54876;BME280;40764;48.472;8.166;2023-02-19T18:17:26;99267.56;;;9.25;82.21
54876;BME280;40764;48.472;8.166;2023-02-19T18:23:26;99278.13;;;9.16;82.31
54876;BME280;40764;48.472;8.166;2023-02-19T18:29:27;99285.72;;;9.09;84.12
54876;BME280;40764;48.472;8.166;2023-02-19T18:35:29;99300.09;;;8.99;86.21
54876;BME280;40764;48.472;8.166;2023-02-19T18:41:29;99303.69;;;9.05;85.46
54876;BME280;40764;48.472;8.166;2023-02-19T18:47:30;99308.09;;;9.11;85.53
54876;BME280;40764;48.472;8.166;2023-02-19T18:53:30;99313.31;;;8.86;87.09
54876;BME280;40764;48.472;8.166;2023-02-19T18:59:31;99318.97;;;8.79;88.60
54876;BME280;40764;48.472;8.166;2023-02-19T19:05:31;99330.34;;;8.71;89.98
54876;BME280;40764;48.472;8.166;2023-02-19T19:11:31;99337.19;;;8.74;89.97
54876;BME280;40764;48.472;8.166;2023-02-19T19:17:32;99345.38;;;8.74;90.23
54876;BME280;40764;48.472;8.166;2023-02-19T19:23:32;99343.31;;;8.64;91.33
54876;BME280;40764;48.472;8.166;2023-02-19T19:29:33;99352.06;;;8.66;91.59
54876;BME280;40764;48.472;8.166;2023-02-19T19:35:33;99360.06;;;8.51;92.29
54876;BME280;40764;48.472;8.166;2023-02-19T19:41:33;99355.34;;;8.41;93.74
54876;BME280;40764;48.472;8.166;2023-02-19T19:47:34;99372.38;;;8.53;93.77
54876;BME280;40764;48.472;8.166;2023-02-19T19:53:34;99379.91;;;8.29;95.15
54876;BME280;40764;48.472;8.166;2023-02-19T19:59:34;99386.84;;;8.37;94.57
54876;BME280;40764;48.472;8.166;2023-02-19T20:05:36;99369.69;;;8.36;95.51
54876;BME280;40764;48.472;8.166;2023-02-19T20:11:43;99382.91;;;8.45;95.44
54876;BME280;40764;48.472;8.166;2023-02-19T20:17:43;99388.41;;;8.33;96.18
54876;BME280;40764;48.472;8.166;2023-02-19T20:23:43;99379.50;;;8.37;96.22
54876;BME280;40764;48.472;8.166;2023-02-19T20:29:44;99383.72;;;8.28;95.67
54876;BME280;40764;48.472;8.166;2023-02-19T20:35:44;99376.38;;;8.29;96.70
54876;BME280;40764;48.472;8.166;2023-02-19T20:41:46;99384.38;;;8.35;96.30
54876;BME280;40764;48.472;8.166;2023-02-19T20:47:47;99372.91;;;8.33;96.85
54876;BME280;40764;48.472;8.166;2023-02-19T20:53:47;99370.19;;;8.33;96.97
54876;BME280;40764;48.472;8.166;2023-02-19T20:59:47;99367.47;;;8.33;96.65
54876;BME280;40764;48.472;8.166;2023-02-19T21:05:48;99364.22;;;8.15;97.28
54876;BME280;40764;48.472;8.166;2023-02-19T21:11:49;99369.75;;;8.03;98.11
54876;BME280;40764;48.472;8.166;2023-02-19T21:17:50;99385.44;;;8.13;97.83
54876;BME280;40764;48.472;8.166;2023-02-19T21:23:51;99392.59;;;8.19;97.95
54876;BME280;40764;48.472;8.166;2023-02-19T21:29:52;99394.25;;;8.20;97.74
54876;BME280;40764;48.472;8.166;2023-02-19T21:35:52;99387.66;;;8.16;96.79
54876;BME280;40764;48.472;8.166;2023-02-19T21:41:52;99383.53;;;8.13;97.43
54876;BME280;40764;48.472;8.166;2023-02-19T21:47:53;99381.78;;;8.07;97.94
54876;BME280;40764;48.472;8.166;2023-02-19T21:53:54;99379.72;;;8.14;97.82
54876;BME280;40764;48.472;8.166;2023-02-19T21:59:54;99370.47;;;8.15;97.55
54876;BME280;40764;48.472;8.166;2023-02-19T22:05:54;99371.44;;;8.26;97.26
54876;BME280;40764;48.472;8.166;2023-02-19T22:11:55;99361.81;;;8.18;97.49
54876;BME280;40764;48.472;8.166;2023-02-19T22:17:55;99360.91;;;8.13;97.09
54876;BME280;40764;48.472;8.166;2023-02-19T22:23:55;99365.69;;;8.05;98.04
54876;BME280;40764;48.472;8.166;2023-02-19T22:29:55;99371.13;;;8.05;97.87
54876;BME280;40764;48.472;8.166;2023-02-19T22:35:56;99370.06;;;8.06;98.13
54876;BME280;40764;48.472;8.166;2023-02-19T22:41:56;99386.50;;;7.95;97.47
54876;BME280;40764;48.472;8.166;2023-02-19T22:47:56;99399.53;;;8.10;97.63
54876;BME280;40764;48.472;8.166;2023-02-19T22:53:58;99405.81;;;8.10;97.34
54876;BME280;40764;48.472;8.166;2023-02-19T22:59:58;99405.81;;;8.10;97.29
54876;BME280;40764;48.472;8.166;2023-02-19T23:06:02;99391.78;;;8.01;97.22
54876;BME280;40764;48.472;8.166;2023-02-19T23:12:08;99403.69;;;7.95;97.28
54876;BME280;40764;48.472;8.166;2023-02-19T23:18:09;99407.16;;;7.91;98.64
54876;BME280;40764;48.472;8.166;2023-02-19T23:24:10;99396.19;;;7.86;98.31
54876;BME280;40764;48.472;8.166;2023-02-19T23:30:11;99409.72;;;7.81;98.56
54876;BME280;40764;48.472;8.166;2023-02-19T23:36:12;99411.59;;;7.97;98.26
54876;BME280;40764;48.472;8.166;2023-02-19T23:42:15;99412.59;;;7.91;97.57
54876;BME280;40764;48.472;8.166;2023-02-19T23:48:15;99415.31;;;7.91;98.48
54876;BME280;40764;48.472;8.166;2023-02-19T23:54:16;99415.00;;;7.87;97.67
